createdAt,value
2022-10-17T00:00:31.668Z,14
2022-10-17T00:01:36.371Z,14
2022-10-17T00:02:40.551Z,13.5
2022-10-17T00:03:44.683Z,13.1
2022-10-17T00:04:49.156Z,14.1
2022-10-17T00:05:53.369Z,13.3
2022-10-17T00:06:57.566Z,13.5
2022-10-17T00:08:01.731Z,13.7
2022-10-17T00:09:06.267Z,14.3
2022-10-17T00:10:10.322Z,14.2
2022-10-17T00:11:14.363Z,13.6
2022-10-17T00:12:18.522Z,13.9
2022-10-17T00:13:22.595Z,13.6
2022-10-17T00:14:26.615Z,13.5
2022-10-17T00:15:30.802Z,14.2
2022-10-17T00:16:35.226Z,13
2022-10-17T00:17:39.268Z,13.9
2022-10-17T00:18:43.519Z,13.8
2022-10-17T00:19:48.024Z,14.1
2022-10-17T00:20:52.200Z,13.4
2022-10-17T00:21:56.796Z,13.7
2022-10-17T00:23:00.875Z,13.3
2022-10-17T00:24:04.868Z,13.4
2022-10-17T00:25:08.981Z,13.2
2022-10-17T00:26:13.064Z,12.4
2022-10-17T00:27:17.125Z,12.9
2022-10-17T00:28:21.446Z,12.3
2022-10-17T00:29:25.968Z,12.7
2022-10-17T00:30:30.452Z,12.6
2022-10-17T00:31:34.556Z,12.3
2022-10-17T00:32:39.013Z,12.2
2022-10-17T00:33:43.140Z,12.8
2022-10-17T00:34:47.225Z,12.5
2022-10-17T00:35:51.381Z,11.9
2022-10-17T00:37:06.128Z,11.8
2022-10-17T00:38:10.288Z,13.3
2022-10-17T00:39:14.387Z,11.6
2022-10-17T00:40:18.952Z,11.9
2022-10-17T00:41:23.533Z,12.3
2022-10-17T00:42:28.275Z,12.5
2022-10-17T00:43:32.053Z,12.2
2022-10-17T00:44:46.831Z,12.3
2022-10-17T00:45:50.860Z,11.2
2022-10-17T00:46:55.053Z,12.3
2022-10-17T00:47:59.215Z,12.1
2022-10-17T00:49:03.340Z,12.8
2022-10-17T00:50:07.888Z,12.8
2022-10-17T00:51:12.364Z,13.2
2022-10-17T00:52:16.480Z,12.2
2022-10-17T00:53:26.704Z,12.9
2022-10-17T00:54:30.717Z,12.2
2022-10-17T00:55:34.759Z,11.5
2022-10-17T00:56:38.852Z,11.4
2022-10-17T00:57:42.916Z,10.9
2022-10-17T00:58:46.964Z,11.1
2022-10-17T00:59:51.100Z,11.5
2022-10-17T01:00:55.276Z,11.8
2022-10-17T01:01:59.453Z,11.1
2022-10-17T01:03:06.999Z,12
2022-10-17T01:04:11.132Z,12.2
2022-10-17T01:05:15.688Z,11.9
2022-10-17T01:06:20.300Z,11.2
2022-10-17T01:07:24.363Z,12.1
2022-10-17T01:08:28.956Z,11.2
2022-10-17T01:09:33.153Z,11.3
2022-10-17T01:10:37.621Z,11.4
2022-10-17T01:11:47.312Z,11.4
2022-10-17T01:13:02.111Z,11.7
2022-10-17T01:14:09.264Z,11.3
2022-10-17T01:15:23.981Z,11.2
2022-10-17T01:16:33.671Z,11.4
2022-10-17T01:17:43.348Z,11.4
2022-10-17T01:18:47.414Z,10.8
2022-10-17T01:19:56.572Z,11
2022-10-17T01:21:10.916Z,10.6
2022-10-17T01:22:18.003Z,11.2
2022-10-17T01:23:30.390Z,10.9
2022-10-17T01:24:44.972Z,11.9
2022-10-17T01:25:54.103Z,10.8
2022-10-17T01:27:08.428Z,10.7
2022-10-17T01:28:17.620Z,11.9
2022-10-17T01:29:29.983Z,10.5
2022-10-17T01:30:44.560Z,10.8
2022-10-17T01:31:56.840Z,11
2022-10-17T01:33:06.025Z,12
2022-10-17T01:34:18.272Z,11.9
2022-10-17T01:35:22.324Z,11.7
2022-10-17T01:36:29.423Z,11.3
2022-10-17T01:37:44.185Z,11.1
2022-10-17T01:38:53.275Z,11.1
2022-10-17T01:40:02.699Z,10.8
2022-10-17T01:41:09.796Z,10.7
2022-10-17T01:42:24.819Z,10.8
2022-10-17T01:43:34.327Z,10.3
2022-10-17T01:44:38.703Z,11.2
2022-10-17T01:45:42.878Z,11.7
2022-10-17T01:46:50.077Z,12.2
2022-10-17T01:47:57.251Z,11.4
2022-10-17T01:49:01.360Z,11.4
2022-10-17T01:50:05.843Z,11.3
2022-10-17T01:51:12.990Z,11.7
2022-10-17T01:52:23.654Z,11.3
2022-10-17T01:53:30.799Z,10.8
2022-10-17T01:54:34.870Z,10.9
2022-10-17T01:55:49.711Z,10.7
2022-10-17T01:56:54.206Z,10.3
2022-10-17T01:57:58.479Z,10.9
2022-10-17T01:59:06.050Z,11.1
2022-10-17T02:00:13.271Z,11.2
2022-10-17T02:01:17.813Z,10.7
2022-10-17T02:02:22.368Z,11
2022-10-17T02:03:26.986Z,10.8
2022-10-17T02:04:31.478Z,10.2
2022-10-17T02:05:35.511Z,10.7
2022-10-17T02:06:39.653Z,10.7
2022-10-17T02:07:43.722Z,10.9
2022-10-17T02:08:48.262Z,10.8
2022-10-17T02:09:52.298Z,11
2022-10-17T02:10:56.571Z,10.2
2022-10-17T02:12:06.255Z,10.4
2022-10-17T02:13:20.950Z,10.2
2022-10-17T02:14:33.147Z,10.8
2022-10-17T02:15:42.686Z,11.6
2022-10-17T02:16:51.990Z,10.7
2022-10-17T02:18:06.830Z,11.7
2022-10-17T02:19:16.474Z,10.9
2022-10-17T02:20:28.578Z,11.7
2022-10-17T02:21:37.818Z,11.1
2022-10-17T02:22:44.855Z,11
2022-10-17T02:23:52.094Z,11.2
2022-10-17T02:25:01.303Z,11.3
2022-10-17T02:26:13.601Z,10.7
2022-10-17T02:27:23.254Z,11.2
2022-10-17T02:28:33.069Z,11.2
2022-10-17T02:29:40.186Z,11.3
2022-10-17T02:30:47.150Z,10.7
2022-10-17T02:31:54.203Z,11
2022-10-17T02:33:01.092Z,10.7
2022-10-17T02:34:08.162Z,10.8
2022-10-17T02:35:17.761Z,11.1
2022-10-17T02:36:21.755Z,10.6
2022-10-17T02:37:26.097Z,10.9
2022-10-17T02:38:29.986Z,11.1
2022-10-17T02:39:34.506Z,11.5
2022-10-17T02:40:38.726Z,11.2
2022-10-17T02:41:43.266Z,11.5
2022-10-17T02:42:47.734Z,11.4
2022-10-17T02:43:51.914Z,11.1
2022-10-17T02:44:56.246Z,10.8
2022-10-17T02:46:00.658Z,12
2022-10-17T02:47:05.203Z,11.1
2022-10-17T02:48:14.394Z,11.3
2022-10-17T02:49:18.407Z,10.7
2022-10-17T02:50:25.708Z,11.3
2022-10-17T02:51:32.731Z,10.7
2022-10-17T02:52:44.897Z,11.3
2022-10-17T02:53:49.043Z,10.6
2022-10-17T02:55:03.326Z,10.4
2022-10-17T02:56:15.562Z,11
2022-10-17T02:57:19.642Z,11.1
2022-10-17T02:58:31.859Z,10.7
2022-10-17T02:59:36.403Z,10.9
2022-10-17T03:00:40.482Z,10.7
2022-10-17T03:01:44.607Z,10.8
2022-10-17T03:02:48.718Z,11.3
2022-10-17T03:03:53.314Z,11.6
2022-10-17T03:05:07.662Z,10.8
2022-10-17T03:06:11.686Z,11.4
2022-10-17T03:07:15.798Z,11.2
2022-10-17T03:08:19.942Z,10.9
2022-10-17T03:09:24.574Z,11
2022-10-17T03:10:29.007Z,11.3
2022-10-17T03:11:33.066Z,10.7
2022-10-17T03:12:37.375Z,10.9
2022-10-17T03:13:41.978Z,11.5
2022-10-17T03:14:46.498Z,10.5
2022-10-17T03:15:51.041Z,11.8
2022-10-17T03:16:55.654Z,10.6
2022-10-17T03:17:59.846Z,11.5
2022-10-17T03:19:04.013Z,10.9
2022-10-17T03:20:08.565Z,11
2022-10-17T03:21:13.082Z,11.1
2022-10-17T03:22:17.314Z,11.5
2022-10-17T03:23:21.782Z,11.7
2022-10-17T03:24:25.994Z,11.7
2022-10-17T03:25:30.523Z,11.2
2022-10-17T03:26:35.058Z,11.1
2022-10-17T03:27:39.068Z,12.3
2022-10-17T03:28:43.224Z,12.5
2022-10-17T03:29:47.746Z,12.3
2022-10-17T03:30:51.898Z,13.5
2022-10-17T03:31:56.411Z,12.1
2022-10-17T03:33:00.635Z,12.6
2022-10-17T03:34:04.839Z,12.7
2022-10-17T03:35:12.519Z,14
2022-10-17T03:36:14.022Z,12.8
2022-10-17T03:37:18.570Z,12.7
2022-10-17T03:38:23.190Z,13.1
2022-10-17T03:39:27.710Z,13.6
2022-10-17T03:40:31.907Z,13.2
2022-10-17T03:41:36.445Z,13.2
2022-10-17T03:42:41.002Z,14.4
2022-10-17T03:43:45.651Z,13.8
2022-10-17T03:44:50.614Z,12.6
2022-10-17T03:45:55.298Z,13.3
2022-10-17T03:46:59.890Z,13.2
2022-10-17T03:48:04.152Z,13
2022-10-17T03:49:08.743Z,12.6
2022-10-17T03:50:13.146Z,12.9
2022-10-17T03:51:17.682Z,12.2
2022-10-17T03:52:21.999Z,12.9
2022-10-17T03:53:26.834Z,12.4
2022-10-17T03:54:31.222Z,12.4
2022-10-17T03:55:35.635Z,12.7
2022-10-17T03:56:42.206Z,12.7
2022-10-17T03:57:45.382Z,12.2
2022-10-17T03:58:48.756Z,12.1
2022-10-17T03:59:52.923Z,12.3
2022-10-17T04:00:56.935Z,12.6
2022-10-17T04:02:03.702Z,11.6
2022-10-17T04:03:07.785Z,12.4
2022-10-17T04:04:11.765Z,11.9
2022-10-17T04:05:15.935Z,12.7
2022-10-17T04:06:19.950Z,11.9
2022-10-17T04:07:24.054Z,12.3
2022-10-17T04:08:28.154Z,12.3
2022-10-17T04:09:32.234Z,12.1
2022-10-17T04:10:36.330Z,11.8
2022-10-17T04:11:40.351Z,12.5
2022-10-17T04:12:44.438Z,12.4
2022-10-17T04:13:48.538Z,11.3
2022-10-17T04:14:52.568Z,12.8
2022-10-17T04:15:56.586Z,12.1
2022-10-17T04:17:00.954Z,11.7
2022-10-17T04:19:09.594Z,12
2022-10-17T04:20:13.715Z,12.3
2022-10-17T04:21:17.741Z,11.8
2022-10-17T04:22:21.806Z,11.4
2022-10-17T04:23:25.906Z,12.7
2022-10-17T04:24:30.126Z,12.1
2022-10-17T04:25:36.020Z,12.7
2022-10-17T04:26:38.690Z,13.1
2022-10-17T04:27:42.842Z,12.6
2022-10-17T04:28:47.287Z,12.6
2022-10-17T04:29:51.450Z,11.3
2022-10-17T04:30:55.676Z,12.5
2022-10-17T04:32:02.866Z,11.8
2022-10-17T04:33:07.027Z,12.4
2022-10-17T04:34:11.585Z,12.4
2022-10-17T04:35:16.142Z,12.7
2022-10-17T04:36:20.649Z,12.5
2022-10-17T04:37:24.906Z,13.6
2022-10-17T04:38:29.339Z,14.1
2022-10-17T04:39:33.318Z,14.4
2022-10-17T04:40:37.454Z,14.6
2022-10-17T04:41:41.495Z,14
2022-10-17T04:42:45.558Z,13.9
2022-10-17T04:43:50.943Z,13.3
2022-10-17T04:44:53.758Z,12.7
2022-10-17T04:45:58.275Z,12.9
2022-10-17T04:47:02.494Z,13.1
2022-10-17T04:48:06.642Z,11.9
2022-10-17T04:49:10.722Z,12.4
2022-10-17T04:50:14.860Z,13
2022-10-17T04:51:20.579Z,13
2022-10-17T04:52:23.421Z,12.5
2022-10-17T04:53:27.442Z,12.3
2022-10-17T04:54:31.606Z,12.3
2022-10-17T04:55:35.638Z,11
2022-10-17T04:56:39.686Z,11.2
2022-10-17T04:57:43.750Z,11.6
2022-10-17T04:58:47.907Z,10.9
2022-10-17T04:59:52.470Z,10.8
2022-10-17T05:00:57.117Z,11
2022-10-17T05:02:01.375Z,11.6
2022-10-17T05:03:05.907Z,11.8
2022-10-17T05:04:10.538Z,11.4
2022-10-17T05:05:15.050Z,11
2022-10-17T05:06:19.683Z,11.5
2022-10-17T05:07:24.334Z,10.8
2022-10-17T05:08:28.686Z,12
2022-10-17T05:09:32.970Z,11
2022-10-17T05:10:37.902Z,11.8
2022-10-17T05:11:45.029Z,11.8
2022-10-17T05:12:49.153Z,11.8
2022-10-17T05:13:53.621Z,12.1
2022-10-17T05:14:57.770Z,11.3
2022-10-17T05:16:01.922Z,11.9
2022-10-17T05:17:06.582Z,12.1
2022-10-17T05:18:11.081Z,11.7
2022-10-17T05:19:15.193Z,12.5
2022-10-17T05:20:19.766Z,11.8
2022-10-17T05:21:26.864Z,11.9
2022-10-17T05:22:31.811Z,11.7
2022-10-17T05:23:36.085Z,12
2022-10-17T05:24:40.298Z,11.5
2022-10-17T05:25:44.871Z,11.9
2022-10-17T05:26:49.452Z,10.9
2022-10-17T05:27:53.890Z,12.1
2022-10-17T05:28:58.466Z,11.9
2022-10-17T05:30:05.827Z,11.5
2022-10-17T05:31:10.263Z,11.2
2022-10-17T05:32:14.546Z,11.1
2022-10-17T05:33:19.095Z,11.7
2022-10-17T05:34:23.541Z,12.1
2022-10-17T05:35:28.385Z,11.9
2022-10-17T05:36:32.814Z,12.4
2022-10-17T05:37:37.331Z,12.6
2022-10-17T05:38:41.626Z,12.1
2022-10-17T05:39:50.578Z,12.6
2022-10-17T05:40:53.162Z,11.7
2022-10-17T05:41:57.714Z,12.4
2022-10-17T05:43:01.986Z,11.4
2022-10-17T05:44:06.579Z,12.7
2022-10-17T05:45:11.137Z,12.8
2022-10-17T05:46:15.721Z,13.7
2022-10-17T05:47:20.323Z,13.8
2022-10-17T05:48:24.838Z,13.5
2022-10-17T05:49:43.859Z,12.8
2022-10-17T05:50:33.438Z,12
2022-10-17T05:52:43.878Z,12.9
2022-10-17T05:53:46.766Z,12
2022-10-17T05:54:51.326Z,11.7
2022-10-17T05:55:55.942Z,12.2
2022-10-17T05:57:00.058Z,12.4
2022-10-17T05:58:04.806Z,12.5
2022-10-17T05:59:09.271Z,12
2022-10-17T06:00:13.827Z,11.2
2022-10-17T06:01:18.597Z,11.3
2022-10-17T06:02:23.197Z,11.1
2022-10-17T06:03:27.647Z,11.6
2022-10-17T06:04:31.795Z,11.1
2022-10-17T06:05:36.393Z,11.5
2022-10-17T06:06:41.200Z,10.7
2022-10-17T06:07:45.546Z,10.6
2022-10-17T06:08:50.123Z,11.3
2022-10-17T06:09:54.340Z,11.2
2022-10-17T06:10:58.766Z,11
2022-10-17T06:12:02.910Z,9.9
2022-10-17T06:13:07.077Z,10.5
2022-10-17T06:14:11.549Z,11.1
2022-10-17T06:15:15.602Z,10.6
2022-10-17T06:16:19.673Z,10.2
2022-10-17T06:17:23.786Z,9.6
2022-10-17T06:18:27.969Z,10.3
2022-10-17T06:19:32.390Z,9.1
2022-10-17T06:20:36.507Z,10.7
2022-10-17T06:21:40.567Z,10.1
2022-10-17T06:22:44.803Z,10.8
2022-10-17T06:23:49.188Z,10.1
2022-10-17T06:24:53.356Z,11.1
2022-10-17T06:25:57.415Z,10.2
2022-10-17T06:27:01.602Z,10.4
2022-10-17T06:28:05.808Z,10.2
2022-10-17T06:29:10.424Z,10.2
2022-10-17T06:30:14.347Z,10.3
2022-10-17T06:31:18.727Z,10.2
2022-10-17T06:32:23.144Z,10.4
2022-10-17T06:33:27.759Z,11
2022-10-17T06:34:32.170Z,10.4
2022-10-17T06:35:36.392Z,10.4
2022-10-17T06:36:41.235Z,11.1
2022-10-17T06:37:45.485Z,11.3
2022-10-17T06:38:49.624Z,10.6
2022-10-17T06:39:54.101Z,11.3
2022-10-17T06:40:58.473Z,10.7
2022-10-17T06:42:08.108Z,11.3
2022-10-17T06:43:12.725Z,11
2022-10-17T06:44:17.205Z,11.5
2022-10-17T06:45:21.402Z,10.8
2022-10-17T06:46:25.877Z,10.3
2022-10-17T06:47:30.659Z,10.1
2022-10-17T06:48:34.595Z,11.1
2022-10-17T06:49:39.154Z,10.8
2022-10-17T06:50:43.632Z,11.2
2022-10-17T06:51:47.799Z,10.8
2022-10-17T06:52:52.343Z,10.1
2022-10-17T06:53:56.343Z,10.3
2022-10-17T06:55:00.606Z,9.8
2022-10-17T06:56:05.116Z,10.6
2022-10-17T06:57:09.251Z,11.6
2022-10-17T06:58:13.343Z,9.7
2022-10-17T06:59:17.363Z,9.9
2022-10-17T07:00:21.716Z,9.9
2022-10-17T07:01:26.036Z,11.4
2022-10-17T07:02:30.355Z,10.9
2022-10-17T07:03:34.288Z,9.9
2022-10-17T07:04:38.850Z,10
2022-10-17T07:05:43.421Z,9.4
2022-10-17T07:06:48.036Z,10
2022-10-17T07:07:52.601Z,9.3
2022-10-17T07:08:57.811Z,9.5
2022-10-17T07:10:02.027Z,9.2
2022-10-17T07:11:08.867Z,10.7
2022-10-17T07:12:13.799Z,9.4
2022-10-17T07:13:18.183Z,9.1
2022-10-17T07:14:28.011Z,10.1
2022-10-17T07:15:36.170Z,9.7
2022-10-17T07:16:50.821Z,10.1
2022-10-17T07:17:59.330Z,10.1
2022-10-17T07:19:07.454Z,9.8
2022-10-17T07:20:13.020Z,9.9
2022-10-17T07:21:17.399Z,10.2
2022-10-17T07:22:21.859Z,10.3
2022-10-17T07:23:26.471Z,10
2022-10-17T07:24:31.091Z,10.1
2022-10-17T07:25:37.734Z,9.2
2022-10-17T07:26:41.506Z,9.9
2022-10-17T07:27:46.411Z,10
2022-10-17T07:28:50.906Z,11.6
2022-10-17T07:29:55.364Z,10.5
2022-10-17T07:31:00.575Z,10.7
2022-10-17T07:32:07.826Z,10.1
2022-10-17T07:33:12.379Z,10.6
2022-10-17T07:34:17.283Z,10.4
2022-10-17T07:35:21.594Z,10.6
2022-10-17T07:36:26.200Z,10.8
2022-10-17T07:37:30.915Z,10.6
2022-10-17T07:38:35.563Z,10.4
2022-10-17T07:39:40.038Z,10.6
2022-10-17T07:40:44.607Z,10.4
2022-10-17T07:41:49.491Z,10.3
2022-10-17T07:42:55.031Z,11.2
2022-10-17T07:43:59.322Z,10.3
2022-10-17T07:45:03.399Z,10.6
2022-10-17T07:46:08.040Z,9.9
2022-10-17T07:47:12.043Z,11.1
2022-10-17T07:48:16.262Z,11.3
2022-10-17T07:49:20.875Z,10.6
2022-10-17T07:50:25.330Z,11.4
2022-10-17T07:51:30.106Z,10.4
2022-10-17T07:52:35.003Z,10.5
2022-10-17T07:53:39.213Z,10.8
2022-10-17T07:54:43.683Z,10.9
2022-10-17T07:55:47.712Z,11
2022-10-17T07:56:52.259Z,10.8
2022-10-17T07:57:56.442Z,11.4
2022-10-17T07:59:05.136Z,10.7
2022-10-17T08:00:08.559Z,10.4
2022-10-17T08:01:14.793Z,11
2022-10-17T08:02:17.519Z,10.4
2022-10-17T08:03:22.211Z,10.9
2022-10-17T08:04:26.618Z,10.6
2022-10-17T08:05:31.242Z,10.3
2022-10-17T08:06:35.850Z,10.5
2022-10-17T08:07:40.955Z,10.9
2022-10-17T08:08:45.514Z,10.1
2022-10-17T08:09:52.987Z,11.2
2022-10-17T08:10:57.294Z,10.3
2022-10-17T08:12:01.782Z,10.8
2022-10-17T08:13:06.874Z,10.7
2022-10-17T08:14:11.211Z,10
2022-10-17T08:15:15.678Z,10.5
2022-10-17T08:16:20.486Z,10.2
2022-10-17T08:17:24.784Z,10.1
2022-10-17T08:18:28.983Z,9.8
2022-10-17T08:19:33.474Z,10.7
2022-10-17T08:20:40.614Z,10.4
2022-10-17T08:21:44.685Z,9.8
2022-10-17T08:22:49.375Z,9.9
2022-10-17T08:23:53.931Z,10.1
2022-10-17T08:24:59.303Z,9.4
2022-10-17T08:26:03.654Z,10.1
2022-10-17T08:27:08.327Z,10.2
2022-10-17T08:28:12.892Z,9.7
2022-10-17T08:29:17.610Z,10.3
2022-10-17T08:30:22.127Z,9.4
2022-10-17T08:31:26.583Z,10.1
2022-10-17T08:32:31.212Z,9.7
2022-10-17T08:33:35.608Z,10.1
2022-10-17T08:34:39.894Z,9.9
2022-10-17T08:35:44.407Z,10.5
2022-10-17T08:36:51.128Z,10.2
2022-10-17T08:37:55.638Z,10.1
2022-10-17T08:39:00.118Z,9.8
2022-10-17T08:40:04.489Z,9.2
2022-10-17T08:41:09.030Z,10.3
2022-10-17T08:42:16.182Z,10.1
2022-10-17T08:43:26.371Z,10.1
2022-10-17T08:44:38.498Z,10
2022-10-17T08:45:53.722Z,9.5
2022-10-17T08:47:00.902Z,9.7
2022-10-17T08:48:05.134Z,9.9
2022-10-17T08:49:19.987Z,9.9
2022-10-17T08:50:24.478Z,9.2
2022-10-17T08:51:39.203Z,9.8
2022-10-17T08:52:46.985Z,9.3
2022-10-17T08:53:51.402Z,10.5
2022-10-17T08:54:55.522Z,10.2
2022-10-17T08:55:59.972Z,9.9
2022-10-17T08:57:07.795Z,10.7
2022-10-17T08:58:15.030Z,9.4
2022-10-17T08:59:19.626Z,10.5
2022-10-17T09:00:24.510Z,9.6
2022-10-17T09:01:28.858Z,10
2022-10-17T09:02:33.411Z,10
2022-10-17T09:03:38.291Z,9.7
2022-10-17T09:04:42.378Z,10.3
2022-10-17T09:05:51.628Z,10.3
2022-10-17T09:07:04.214Z,9.6
2022-10-17T09:08:13.610Z,9.5
2022-10-17T09:09:25.788Z,10.1
2022-10-17T09:10:30.282Z,9.8
2022-10-17T09:11:39.366Z,9.3
2022-10-17T09:12:48.642Z,10
2022-10-17T09:14:03.575Z,9.9
2022-10-17T09:15:13.118Z,9.5
2022-10-17T09:16:27.434Z,9.8
2022-10-17T09:17:34.473Z,9.1
2022-10-17T09:18:38.607Z,9.6
2022-10-17T09:19:51.171Z,9.9
2022-10-17T09:20:55.554Z,9.1
2022-10-17T09:22:05.810Z,9.3
2022-10-17T09:23:10.939Z,10
2022-10-17T09:24:21.324Z,9.2
2022-10-17T09:25:34.119Z,9.8
2022-10-17T09:26:41.362Z,9.9
2022-10-17T09:27:45.547Z,10.4
2022-10-17T09:28:53.544Z,9.6
2022-10-17T09:29:57.658Z,10
2022-10-17T09:31:07.722Z,9.2
2022-10-17T09:32:15.218Z,9.2
2022-10-17T09:33:28.323Z,8.8
2022-10-17T09:34:27.544Z,9
2022-10-17T09:35:31.548Z,9.2
2022-10-17T09:36:36.842Z,9.1
2022-10-17T09:37:41.062Z,9.3
2022-10-17T09:38:45.410Z,9.1
2022-10-17T09:39:50.258Z,8.1
2022-10-17T09:40:56.926Z,8.3
2022-10-17T09:41:58.522Z,9
2022-10-17T09:43:02.946Z,8.9
2022-10-17T09:44:07.722Z,9.1
2022-10-17T09:45:17.320Z,8.6
2022-10-17T09:46:21.728Z,9.2
2022-10-17T09:47:30.993Z,8.4
2022-10-17T09:48:35.079Z,8.6
2022-10-17T09:49:39.215Z,9.4
2022-10-17T09:50:43.206Z,10.1
2022-10-17T09:51:47.886Z,9
2022-10-17T09:52:52.006Z,9.4
2022-10-17T09:53:56.673Z,8.8
2022-10-17T09:55:04.017Z,9.5
2022-10-17T09:56:18.907Z,8.4
2022-10-17T09:57:29.030Z,8.6
2022-10-17T09:58:43.266Z,8.1
2022-10-17T09:59:50.727Z,8.2
2022-10-17T10:00:58.062Z,8
2022-10-17T10:02:02.922Z,8
2022-10-17T10:03:12.392Z,8.1
2022-10-17T10:04:19.597Z,7.9
2022-10-17T10:05:24.046Z,8.4
2022-10-17T10:06:28.238Z,7.8
2022-10-17T10:07:32.938Z,8.1
2022-10-17T10:08:37.401Z,8.2
2022-10-17T10:09:52.074Z,8
2022-10-17T10:10:56.214Z,7.5
2022-10-17T10:12:00.810Z,7.4
2022-10-17T10:13:05.574Z,7.8
2022-10-17T10:14:15.115Z,7.5
2022-10-17T10:15:24.737Z,7.9
2022-10-17T10:16:34.365Z,7.3
2022-10-17T10:17:38.428Z,7.9
2022-10-17T10:18:43.301Z,8.3
2022-10-17T10:19:47.141Z,7.8
2022-10-17T10:20:51.639Z,8.4
2022-10-17T10:22:06.098Z,8.1
2022-10-17T10:23:15.966Z,7.8
2022-10-17T10:24:20.317Z,7.8
2022-10-17T10:25:24.371Z,8
2022-10-17T10:26:28.607Z,7.6
2022-10-17T10:27:40.682Z,7.2
2022-10-17T10:28:45.574Z,8.2
2022-10-17T10:29:55.055Z,7.8
2022-10-17T10:30:59.462Z,7.7
2022-10-17T10:32:04.266Z,7.5
2022-10-17T10:33:17.138Z,7.7
2022-10-17T10:34:22.200Z,7.8
2022-10-17T10:35:26.678Z,8.4
2022-10-17T10:37:45.974Z,8.6
2022-10-17T10:38:53.871Z,8.4
2022-10-17T10:39:58.759Z,8.4
2022-10-17T10:41:03.301Z,8.4
2022-10-17T10:42:07.615Z,8.3
2022-10-17T10:43:22.201Z,8.1
2022-10-17T10:44:31.797Z,7.6
2022-10-17T10:45:47.281Z,9
2022-10-17T10:46:41.074Z,7.7
2022-10-17T10:47:45.835Z,8.8
2022-10-17T10:48:54.243Z,8.2
2022-10-17T10:49:58.442Z,8.4
2022-10-17T10:51:13.479Z,8.3
2022-10-17T10:52:17.802Z,8.2
2022-10-17T10:53:34.182Z,7.4
2022-10-17T10:54:42.274Z,7.6
2022-10-17T10:55:54.466Z,8.1
2022-10-17T10:57:06.697Z,7.8
2022-10-17T10:58:10.907Z,7.5
2022-10-17T10:59:20.602Z,7.5
2022-10-17T11:00:31.345Z,7.7
2022-10-17T11:01:35.886Z,7.5
2022-10-17T11:02:43.133Z,8.1
2022-10-17T11:03:52.729Z,7.8
2022-10-17T11:05:02.278Z,7.2
2022-10-17T11:06:11.719Z,8
2022-10-17T11:07:21.319Z,8.1
2022-10-17T11:08:28.382Z,7.8
2022-10-17T11:09:35.499Z,7.8
2022-10-17T11:10:50.187Z,8.1
2022-10-17T11:12:04.929Z,7.7
2022-10-17T11:13:15.281Z,7.9
2022-10-17T11:14:19.486Z,7.7
2022-10-17T11:15:31.610Z,7.9
2022-10-17T11:16:43.942Z,7.8
2022-10-17T11:17:48.667Z,8
2022-10-17T11:18:53.203Z,7.8
2022-10-17T11:20:00.802Z,8
2022-10-17T11:21:10.505Z,7.7
2022-10-17T11:22:21.249Z,8
2022-10-17T11:23:24.595Z,8.2
2022-10-17T11:24:39.335Z,8.2
2022-10-17T11:25:54.082Z,7.6
2022-10-17T11:26:58.201Z,7.8
2022-10-17T11:28:05.019Z,7.9
2022-10-17T11:29:13.093Z,7.7
2022-10-17T11:30:17.526Z,7.7
2022-10-17T11:31:24.606Z,7.8
2022-10-17T11:32:31.906Z,8
2022-10-17T11:33:41.063Z,7.8
2022-10-17T11:34:50.584Z,8
2022-10-17T11:35:58.820Z,8
2022-10-17T11:37:02.310Z,8.3
2022-10-17T11:38:06.533Z,8.1
2022-10-17T11:39:21.617Z,8.6
2022-10-17T11:40:30.891Z,8.4
2022-10-17T11:41:35.118Z,8.5
2022-10-17T11:42:39.701Z,7.9
2022-10-17T11:43:49.417Z,8.6
2022-10-17T11:44:59.129Z,9.1
2022-10-17T11:46:03.770Z,8.3
2022-10-17T11:47:13.393Z,9.3
2022-10-17T11:48:28.178Z,8.8
2022-10-17T11:49:33.958Z,8.7
2022-10-17T11:52:00.593Z,9.2
2022-10-17T11:52:56.243Z,9.1
2022-10-17T11:54:00.793Z,8.8
2022-10-17T11:55:10.502Z,8.9
2022-10-17T11:56:15.058Z,9.4
2022-10-17T11:57:19.070Z,8.8
2022-10-17T11:58:33.902Z,8.4
2022-10-17T11:59:48.685Z,8.6
2022-10-17T12:00:58.297Z,8.6
2022-10-17T12:02:10.546Z,8.3
2022-10-17T12:03:14.618Z,8.2
2022-10-17T12:04:21.868Z,8.1
2022-10-17T12:05:31.757Z,8.4
2022-10-17T12:06:46.269Z,7.7
2022-10-17T12:07:55.905Z,7.4
2022-10-17T12:09:00.476Z,8.7
2022-10-17T12:10:16.114Z,8.3
2022-10-17T12:11:31.332Z,8.3
2022-10-17T12:12:40.669Z,8.8
2022-10-17T12:13:47.897Z,8.1
2022-10-17T12:14:52.565Z,8.1
2022-10-17T12:16:02.164Z,8
2022-10-17T12:17:16.897Z,8.4
2022-10-17T12:18:29.091Z,8.3
2022-10-17T12:19:33.124Z,8.1
2022-10-17T12:20:37.628Z,8.3
2022-10-17T12:21:43.412Z,8.2
2022-10-17T12:22:56.628Z,8.4
2022-10-17T12:24:13.475Z,7.9
2022-10-17T12:25:18.621Z,9.3
2022-10-17T12:26:22.813Z,10.3
2022-10-17T12:27:27.559Z,8.5
2022-10-17T12:28:39.584Z,8.1
2022-10-17T12:29:46.553Z,8.5
2022-10-17T12:30:50.689Z,8.5
2022-10-17T12:32:02.946Z,7.7
2022-10-17T12:33:10.237Z,8.3
2022-10-17T12:34:22.430Z,8.4
2022-10-17T12:35:26.917Z,8.1
2022-10-17T12:36:31.176Z,8.2
2022-10-17T12:37:35.561Z,8.4
2022-10-17T12:38:50.502Z,8
2022-10-17T12:40:02.566Z,8.1
2022-10-17T12:41:07.218Z,8.7
2022-10-17T12:42:11.470Z,8.7
2022-10-17T12:43:23.925Z,8.4
2022-10-17T12:44:28.786Z,8.4
2022-10-17T12:45:32.657Z,8.2
2022-10-17T12:46:47.359Z,7.9
2022-10-17T12:47:57.124Z,8.1
2022-10-17T12:49:01.789Z,8.6
2022-10-17T12:50:06.377Z,8.2
2022-10-17T12:51:35.559Z,8.6
2022-10-17T12:52:20.573Z,8.4
2022-10-17T12:53:33.791Z,8.6
2022-10-17T12:54:47.930Z,8
2022-10-17T12:55:51.122Z,8.4
2022-10-17T12:57:00.836Z,8.5
2022-10-17T12:58:05.305Z,8.5
2022-10-17T12:59:09.555Z,8.6
2022-10-17T13:00:16.696Z,8.1
2022-10-17T13:01:26.435Z,7.4
2022-10-17T13:02:33.440Z,7.6
2022-10-17T13:03:37.960Z,7.6
2022-10-17T13:04:42.045Z,7.5
2022-10-17T13:05:46.672Z,8.3
2022-10-17T13:06:50.729Z,7.7
2022-10-17T13:07:54.860Z,8
2022-10-17T13:09:03.423Z,8.5
2022-10-17T13:10:03.105Z,7.5
2022-10-17T13:11:07.801Z,7.9
2022-10-17T13:12:12.408Z,7
2022-10-17T13:13:19.528Z,7.8
2022-10-17T13:14:29.121Z,7.7
2022-10-17T13:15:33.096Z,6.9
2022-10-17T13:16:37.201Z,8.7
2022-10-17T13:17:43.747Z,7.9
2022-10-17T13:18:45.942Z,8
2022-10-17T13:19:50.609Z,7.4
2022-10-17T13:20:55.018Z,7.9
2022-10-17T13:22:06.269Z,7.8
2022-10-17T13:23:16.649Z,7.3
2022-10-17T13:24:23.877Z,8.1
2022-10-17T13:25:31.502Z,7.8
2022-10-17T13:26:35.901Z,7.4
2022-10-17T13:27:40.573Z,7.3
2022-10-17T13:28:45.267Z,7.9
2022-10-17T13:29:59.827Z,7.7
2022-10-17T13:31:04.404Z,7.4
2022-10-17T13:32:08.675Z,7.4
2022-10-17T13:33:12.711Z,8.1
2022-10-17T13:34:17.361Z,7.4
2022-10-17T13:35:27.832Z,7.8
2022-10-17T13:36:33.819Z,7.6
2022-10-17T13:37:38.383Z,7.6
2022-10-17T13:38:42.749Z,7.7
2022-10-17T13:40:00.182Z,7.9
2022-10-17T13:41:01.296Z,7.7
2022-10-17T13:41:57.405Z,8.4
2022-10-17T13:43:02.078Z,7.2
2022-10-17T13:44:06.588Z,7.6
2022-10-17T13:45:10.934Z,7.6
2022-10-17T13:46:35.903Z,8.1
2022-10-17T13:47:31.023Z,7.4
2022-10-17T13:48:35.041Z,7.4
2022-10-17T13:49:39.642Z,8.2
2022-10-17T13:50:44.739Z,7.9
2022-10-17T13:51:48.310Z,7.5
2022-10-17T13:52:52.533Z,7.6
2022-10-17T13:54:07.412Z,7.6
2022-10-17T13:55:19.936Z,7.8
2022-10-17T13:56:29.442Z,7.4
2022-10-17T13:57:29.896Z,7.9
2022-10-17T13:58:34.061Z,7.9
2022-10-17T13:59:43.237Z,7.5
2022-10-17T14:00:50.711Z,7.9
2022-10-17T14:01:55.179Z,7.7
2022-10-17T14:02:59.376Z,7.5
2022-10-17T14:04:19.394Z,7.5
2022-10-17T14:05:18.063Z,7.3
2022-10-17T14:06:16.441Z,7.8
2022-10-17T14:07:20.640Z,7.6
2022-10-17T14:08:25.496Z,7.5
2022-10-17T14:09:29.844Z,7.5
2022-10-17T14:10:34.128Z,7.8
2022-10-17T14:11:38.737Z,7.7
2022-10-17T14:12:43.304Z,7.2
2022-10-17T14:13:47.958Z,7.3
2022-10-17T14:15:09.577Z,7
2022-10-17T14:15:57.025Z,7
2022-10-17T14:17:01.332Z,7
2022-10-17T14:18:15.853Z,7.4
2022-10-17T14:19:20.497Z,7.2
2022-10-17T14:20:57.369Z,7.2
2022-10-17T14:21:43.145Z,7.2
2022-10-17T14:22:36.981Z,7.2
2022-10-17T14:23:41.440Z,7.1
2022-10-17T14:24:46.037Z,7.1
2022-10-17T14:25:50.648Z,7.2
2022-10-17T14:27:05.476Z,6.9
2022-10-17T14:28:20.017Z,6.6
2022-10-17T14:29:24.608Z,7.2
2022-10-17T14:30:52.053Z,7
2022-10-17T14:31:36.463Z,6.9
2022-10-17T14:32:41.560Z,6.5
2022-10-17T14:33:49.714Z,6.5
2022-10-17T14:34:50.779Z,6.5
2022-10-17T14:35:55.293Z,6.3
2022-10-17T14:36:59.347Z,6.8
2022-10-17T14:38:03.887Z,6.2
2022-10-17T14:39:11.986Z,6.3
2022-10-17T14:40:12.494Z,6.5
2022-10-17T14:41:41.165Z,6.2
2022-10-17T14:42:25.798Z,6.2
2022-10-17T14:43:30.406Z,7.4
2022-10-17T14:44:34.642Z,7.1
2022-10-17T14:45:39.234Z,7.6
2022-10-17T14:46:46.244Z,6.7
2022-10-17T14:47:48.027Z,6.5
2022-10-17T14:48:52.638Z,6.2
2022-10-17T14:49:56.963Z,6.1
2022-10-17T14:51:04.120Z,5.9
2022-10-17T14:52:15.058Z,5.7
2022-10-17T14:53:16.236Z,5.7
2022-10-17T14:54:20.396Z,6.1
2022-10-17T14:55:27.510Z,6
2022-10-17T14:56:31.755Z,6.3
2022-10-17T14:57:41.410Z,6.1
2022-10-17T14:58:45.514Z,6.4
2022-10-17T14:59:54.502Z,6.3
2022-10-17T15:00:54.110Z,6.5
2022-10-17T15:01:58.158Z,6.1